sensor_id;sensor_type;location;lat;lon;timestamp;pressure;altitude;pressure_sealevel;temperature;humidity
69749;BME280;57019;52.354;6.584;2022-12-17T00:00:09;102176.91;;;18.08;36.21
69749;BME280;57019;52.354;6.584;2022-12-17T00:02:57;102182.41;;;18.05;36.22
69749;BME280;57019;52.354;6.584;2022-12-17T00:05:41;102190.50;;;18.02;36.14
69749;BME280;57019;52.354;6.584;2022-12-17T00:08:25;102185.56;;;17.99;36.30
69749;BME280;57019;52.354;6.584;2022-12-17T00:11:09;102191.06;;;17.96;36.25
69749;BME280;57019;52.354;6.584;2022-12-17T00:13:53;102196.41;;;17.94;36.27
69749;BME280;57019;52.354;6.584;2022-12-17T00:16:37;102199.38;;;17.90;36.31
69749;BME280;57019;52.354;6.584;2022-12-17T00:19:21;102195.72;;;17.92;36.12
69749;BME280;57019;52.354;6.584;2022-12-17T00:22:05;102198.69;;;17.88;36.08
69749;BME280;57019;52.354;6.584;2022-12-17T00:24:49;102196.09;;;17.88;36.02
69749;BME280;57019;52.354;6.584;2022-12-17T00:27:33;102202.25;;;17.87;36.03
69749;BME280;57019;52.354;6.584;2022-12-17T00:30:18;102208.59;;;17.84;36.00
69749;BME280;57019;52.354;6.584;2022-12-17T00:33:02;102208.03;;;17.80;35.94
69749;BME280;57019;52.354;6.584;2022-12-17T00:35:51;102205.66;;;17.77;36.08
69749;BME280;57019;52.354;6.584;2022-12-17T00:38:35;102205.00;;;17.75;35.97
69749;BME280;57019;52.354;6.584;2022-12-17T00:41:19;102208.56;;;17.74;35.93
69749;BME280;57019;52.354;6.584;2022-12-17T00:44:03;102205.25;;;17.72;35.94
69749;BME280;57019;52.354;6.584;2022-12-17T00:46:47;102215.72;;;17.72;35.93
69749;BME280;57019;52.354;6.584;2022-12-17T00:49:31;102208.81;;;17.71;35.88
69749;BME280;57019;52.354;6.584;2022-12-17T00:52:15;102209.78;;;17.70;35.75
69749;BME280;57019;52.354;6.584;2022-12-17T00:54:59;102199.72;;;17.66;35.87
69749;BME280;57019;52.354;6.584;2022-12-17T00:57:43;102204.09;;;17.65;35.74
69749;BME280;57019;52.354;6.584;2022-12-17T01:00:27;102203.56;;;17.61;35.74
69749;BME280;57019;52.354;6.584;2022-12-17T01:03:12;102204.53;;;17.60;35.83
69749;BME280;57019;52.354;6.584;2022-12-17T01:06:00;102207.94;;;17.61;35.80
69749;BME280;57019;52.354;6.584;2022-12-17T01:08:44;102203.81;;;17.58;35.76
69749;BME280;57019;52.354;6.584;2022-12-17T01:11:28;102206.56;;;17.57;35.68
69749;BME280;57019;52.354;6.584;2022-12-17T01:14:13;102212.75;;;17.56;35.65
69749;BME280;57019;52.354;6.584;2022-12-17T01:16:57;102211.09;;;17.55;35.64
69749;BME280;57019;52.354;6.584;2022-12-17T01:19:41;102213.13;;;17.51;35.71
69749;BME280;57019;52.354;6.584;2022-12-17T01:22:25;102220.16;;;17.51;35.72
69749;BME280;57019;52.354;6.584;2022-12-17T01:25:09;102230.88;;;17.48;35.83
69749;BME280;57019;52.354;6.584;2022-12-17T01:27:53;102226.59;;;17.46;35.66
69749;BME280;57019;52.354;6.584;2022-12-17T01:30:37;102224.94;;;17.45;35.56
69749;BME280;57019;52.354;6.584;2022-12-17T01:33:22;102237.31;;;17.43;35.64
69749;BME280;57019;52.354;6.584;2022-12-17T01:36:06;102240.88;;;17.42;35.55
69749;BME280;57019;52.354;6.584;2022-12-17T01:38:50;102230.69;;;17.39;35.57
69749;BME280;57019;52.354;6.584;2022-12-17T01:41:34;102241.38;;;17.36;35.67
69749;BME280;57019;52.354;6.584;2022-12-17T01:47:50;102242.22;;;17.37;35.44
69749;BME280;57019;52.354;6.584;2022-12-17T01:50:38;102250.41;;;17.32;35.52
69749;BME280;57019;52.354;6.584;2022-12-17T01:53:28;102244.50;;;17.30;35.44
69749;BME280;57019;52.354;6.584;2022-12-17T01:56:14;102251.38;;;17.31;35.46
69749;BME280;57019;52.354;6.584;2022-12-17T01:58:59;102253.53;;;17.26;35.57
69749;BME280;57019;52.354;6.584;2022-12-17T02:01:43;102263.28;;;17.24;35.45
69749;BME280;57019;52.354;6.584;2022-12-17T02:04:27;102256.41;;;17.23;35.39
69749;BME280;57019;52.354;6.584;2022-12-17T02:13:13;102261.19;;;17.18;35.41
69749;BME280;57019;52.354;6.584;2022-12-17T02:16:19;102255.00;;;17.19;35.25
69749;BME280;57019;52.354;6.584;2022-12-17T02:22:00;102263.78;;;17.18;35.35
69749;BME280;57019;52.354;6.584;2022-12-17T02:24:56;102269.28;;;17.15;35.31
69749;BME280;57019;52.354;6.584;2022-12-17T02:27:42;102265.00;;;17.13;35.28
69749;BME280;57019;52.354;6.584;2022-12-17T02:30:34;102267.75;;;17.12;35.24
69749;BME280;57019;52.354;6.584;2022-12-17T02:33:18;102274.72;;;17.11;35.23
69749;BME280;57019;52.354;6.584;2022-12-17T02:36:05;102269.50;;;17.11;35.19
69749;BME280;57019;52.354;6.584;2022-12-17T02:38:59;102261.25;;;17.06;35.32
69749;BME280;57019;52.354;6.584;2022-12-17T02:41:46;102272.63;;;17.05;35.21
69749;BME280;57019;52.354;6.584;2022-12-17T02:44:32;102273.59;;;17.04;35.26
69749;BME280;57019;52.354;6.584;2022-12-17T02:47:18;102272.06;;;17.02;35.25
69749;BME280;57019;52.354;6.584;2022-12-17T02:50:03;102277.41;;;17.00;35.22
69749;BME280;57019;52.354;6.584;2022-12-17T02:52:48;102280.00;;;17.00;35.20
69749;BME280;57019;52.354;6.584;2022-12-17T02:55:34;102284.28;;;17.01;35.19
69749;BME280;57019;52.354;6.584;2022-12-17T02:58:19;102287.16;;;16.98;35.13
69749;BME280;57019;52.354;6.584;2022-12-17T03:01:04;102294.13;;;16.98;35.13
69749;BME280;57019;52.354;6.584;2022-12-17T03:04:05;102291.91;;;16.93;35.24
69749;BME280;57019;52.354;6.584;2022-12-17T03:06:49;102290.97;;;16.94;35.17
69749;BME280;57019;52.354;6.584;2022-12-17T03:09:33;102297.38;;;16.90;35.07
69749;BME280;57019;52.354;6.584;2022-12-17T03:12:17;102300.94;;;16.89;35.04
69749;BME280;57019;52.354;6.584;2022-12-17T03:15:01;102301.63;;;16.91;35.11
69749;BME280;57019;52.354;6.584;2022-12-17T03:17:45;102299.25;;;16.88;35.21
69749;BME280;57019;52.354;6.584;2022-12-17T03:20:29;102294.03;;;16.88;35.08
69749;BME280;57019;52.354;6.584;2022-12-17T03:23:13;102293.19;;;16.87;35.11
69749;BME280;57019;52.354;6.584;2022-12-17T03:25:59;102296.88;;;16.85;35.11
69749;BME280;57019;52.354;6.584;2022-12-17T03:28:43;102294.53;;;16.82;35.16
69749;BME280;57019;52.354;6.584;2022-12-17T03:31:27;102289.31;;;16.82;34.94
69749;BME280;57019;52.354;6.584;2022-12-17T03:34:11;102289.19;;;16.83;35.04
69749;BME280;57019;52.354;6.584;2022-12-17T03:37:03;102290.72;;;16.86;35.05
69749;BME280;57019;52.354;6.584;2022-12-17T03:39:47;102297.56;;;16.87;35.01
69749;BME280;57019;52.354;6.584;2022-12-17T03:42:31;102307.69;;;16.91;34.97
69749;BME280;57019;52.354;6.584;2022-12-17T03:45:14;102314.75;;;17.01;34.67
69749;BME280;57019;52.354;6.584;2022-12-17T03:48:10;102315.06;;;17.07;34.78
69749;BME280;57019;52.354;6.584;2022-12-17T03:50:54;102310.19;;;17.14;34.59
69749;BME280;57019;52.354;6.584;2022-12-17T03:53:38;102319.28;;;17.20;34.46
69749;BME280;57019;52.354;6.584;2022-12-17T03:56:22;102318.09;;;17.24;34.32
69749;BME280;57019;52.354;6.584;2022-12-17T03:59:07;102316.19;;;17.26;34.29
69749;BME280;57019;52.354;6.584;2022-12-17T04:01:51;102311.66;;;17.28;34.34
69749;BME280;57019;52.354;6.584;2022-12-17T04:04:34;102312.63;;;17.27;34.25
69749;BME280;57019;52.354;6.584;2022-12-17T04:07:18;102320.69;;;17.24;34.39
69749;BME280;57019;52.354;6.584;2022-12-17T04:10:02;102318.22;;;17.22;34.34
69749;BME280;57019;52.354;6.584;2022-12-17T04:12:47;102327.00;;;17.21;34.27
69749;BME280;57019;52.354;6.584;2022-12-17T04:15:31;102328.09;;;17.19;34.32
69749;BME280;57019;52.354;6.584;2022-12-17T04:18:14;102333.69;;;17.14;34.29
69749;BME280;57019;52.354;6.584;2022-12-17T04:20:58;102334.63;;;17.13;34.28
69749;BME280;57019;52.354;6.584;2022-12-17T04:23:42;102340.69;;;17.13;34.30
69749;BME280;57019;52.354;6.584;2022-12-17T04:26:26;102339.03;;;17.12;34.34
69749;BME280;57019;52.354;6.584;2022-12-17T04:29:10;102339.75;;;17.15;34.31
69749;BME280;57019;52.354;6.584;2022-12-17T04:31:54;102345.41;;;17.20;34.18
69749;BME280;57019;52.354;6.584;2022-12-17T04:34:38;102343.25;;;17.25;34.12
69749;BME280;57019;52.354;6.584;2022-12-17T04:37:22;102350.81;;;17.28;34.05
69749;BME280;57019;52.354;6.584;2022-12-17T04:40:07;102347.72;;;17.34;33.95
69749;BME280;57019;52.354;6.584;2022-12-17T04:42:52;102350.53;;;17.42;33.88
69749;BME280;57019;52.354;6.584;2022-12-17T04:45:35;102342.88;;;17.51;33.74
69749;BME280;57019;52.354;6.584;2022-12-17T04:48:19;102343.22;;;17.57;33.72
69749;BME280;57019;52.354;6.584;2022-12-17T04:51:04;102357.28;;;17.66;33.45
69749;BME280;57019;52.354;6.584;2022-12-17T04:53:47;102344.41;;;17.74;33.27
69749;BME280;57019;52.354;6.584;2022-12-17T04:56:32;102344.84;;;17.79;33.29
69749;BME280;57019;52.354;6.584;2022-12-17T04:59:16;102346.69;;;17.89;33.13
69749;BME280;57019;52.354;6.584;2022-12-17T05:02:00;102342.63;;;17.96;33.00
69749;BME280;57019;52.354;6.584;2022-12-17T05:04:44;102350.91;;;18.01;32.77
69749;BME280;57019;52.354;6.584;2022-12-17T05:07:28;102353.38;;;18.03;32.85
69749;BME280;57019;52.354;6.584;2022-12-17T05:10:13;102346.75;;;17.99;33.02
69749;BME280;57019;52.354;6.584;2022-12-17T05:12:57;102345.91;;;17.98;32.90
69749;BME280;57019;52.354;6.584;2022-12-17T05:15:42;102349.75;;;17.94;32.93
69749;BME280;57019;52.354;6.584;2022-12-17T05:18:26;102350.94;;;17.90;32.92
69749;BME280;57019;52.354;6.584;2022-12-17T05:21:10;102347.91;;;17.85;33.13
69749;BME280;57019;52.354;6.584;2022-12-17T05:23:54;102353.50;;;17.80;33.23
69749;BME280;57019;52.354;6.584;2022-12-17T05:26:38;102354.84;;;17.74;33.26
69749;BME280;57019;52.354;6.584;2022-12-17T05:29:29;102362.00;;;17.72;33.22
69749;BME280;57019;52.354;6.584;2022-12-17T05:32:13;102357.00;;;17.69;33.26
69749;BME280;57019;52.354;6.584;2022-12-17T05:34:57;102349.03;;;17.71;33.28
69749;BME280;57019;52.354;6.584;2022-12-17T05:37:41;102359.25;;;17.74;33.26
69749;BME280;57019;52.354;6.584;2022-12-17T05:40:25;102361.47;;;17.78;33.10
69749;BME280;57019;52.354;6.584;2022-12-17T05:43:11;102362.06;;;17.82;33.13
69749;BME280;57019;52.354;6.584;2022-12-17T05:45:58;102364.75;;;17.92;33.00
69749;BME280;57019;52.354;6.584;2022-12-17T05:48:42;102362.69;;;17.95;32.91
69749;BME280;57019;52.354;6.584;2022-12-17T05:51:26;102362.19;;;18.02;32.82
69749;BME280;57019;52.354;6.584;2022-12-17T05:54:10;102360.69;;;18.09;32.73
69749;BME280;57019;52.354;6.584;2022-12-17T05:56:55;102350.53;;;18.16;32.63
69749;BME280;57019;52.354;6.584;2022-12-17T05:59:39;102365.72;;;18.22;32.38
69749;BME280;57019;52.354;6.584;2022-12-17T06:02:23;102366.84;;;18.29;32.46
69749;BME280;57019;52.354;6.584;2022-12-17T06:05:08;102366.44;;;18.34;32.29
69749;BME280;57019;52.354;6.584;2022-12-17T06:07:52;102364.13;;;18.40;32.26
69749;BME280;57019;52.354;6.584;2022-12-17T06:10:36;102367.84;;;18.47;32.09
69749;BME280;57019;52.354;6.584;2022-12-17T06:13:20;102369.00;;;18.55;32.04
69749;BME280;57019;52.354;6.584;2022-12-17T06:16:04;102374.50;;;18.61;31.80
69749;BME280;57019;52.354;6.584;2022-12-17T06:18:48;102373.16;;;18.67;31.66
69749;BME280;57019;52.354;6.584;2022-12-17T06:21:32;102383.06;;;18.73;31.64
69749;BME280;57019;52.354;6.584;2022-12-17T06:24:16;102394.69;;;18.90;31.65
69749;BME280;57019;52.354;6.584;2022-12-17T06:27:00;102389.34;;;18.92;31.65
69749;BME280;57019;52.354;6.584;2022-12-17T06:29:44;102398.97;;;19.01;31.39
69749;BME280;57019;52.354;6.584;2022-12-17T06:32:28;102401.88;;;19.08;31.14
69749;BME280;57019;52.354;6.584;2022-12-17T06:35:11;102407.41;;;19.14;31.34
69749;BME280;57019;52.354;6.584;2022-12-17T06:38:00;102406.59;;;19.24;30.95
69749;BME280;57019;52.354;6.584;2022-12-17T06:40:44;102404.63;;;19.26;30.88
69749;BME280;57019;52.354;6.584;2022-12-17T06:43:28;102410.72;;;19.26;31.20
69749;BME280;57019;52.354;6.584;2022-12-17T06:46:12;102408.50;;;19.22;31.10
69749;BME280;57019;52.354;6.584;2022-12-17T06:48:57;102406.59;;;19.14;31.17
69749;BME280;57019;52.354;6.584;2022-12-17T06:51:41;102401.59;;;19.11;31.37
69749;BME280;57019;52.354;6.584;2022-12-17T06:54:24;102405.19;;;19.00;31.39
69749;BME280;57019;52.354;6.584;2022-12-17T06:57:08;102403.25;;;18.92;31.44
69749;BME280;57019;52.354;6.584;2022-12-17T06:59:52;102404.16;;;18.81;31.58
69749;BME280;57019;52.354;6.584;2022-12-17T07:02:36;102399.72;;;18.72;31.71
69749;BME280;57019;52.354;6.584;2022-12-17T07:05:20;102413.50;;;18.74;31.81
69749;BME280;57019;52.354;6.584;2022-12-17T07:08:04;102405.22;;;18.69;31.82
69749;BME280;57019;52.354;6.584;2022-12-17T07:10:48;102409.50;;;18.70;31.84
69749;BME280;57019;52.354;6.584;2022-12-17T07:13:32;102421.63;;;18.71;31.83
69749;BME280;57019;52.354;6.584;2022-12-17T07:16:16;102414.47;;;18.73;31.84
69749;BME280;57019;52.354;6.584;2022-12-17T07:19:00;102433.34;;;18.77;31.65
69749;BME280;57019;52.354;6.584;2022-12-17T07:21:44;102429.38;;;18.82;31.75
69749;BME280;57019;52.354;6.584;2022-12-17T07:24:28;102440.31;;;18.88;31.48
69749;BME280;57019;52.354;6.584;2022-12-17T07:27:26;102441.69;;;18.92;31.44
69749;BME280;57019;52.354;6.584;2022-12-17T07:30:10;102442.38;;;18.94;31.53
69749;BME280;57019;52.354;6.584;2022-12-17T07:33:03;102440.19;;;18.99;31.48
69749;BME280;57019;52.354;6.584;2022-12-17T07:35:48;102443.34;;;19.03;31.43
69749;BME280;57019;52.354;6.584;2022-12-17T07:38:32;102453.72;;;19.14;31.32
69749;BME280;57019;52.354;6.584;2022-12-17T07:41:16;102457.84;;;19.17;31.40
69749;BME280;57019;52.354;6.584;2022-12-17T07:44:00;102457.00;;;19.26;31.21
69749;BME280;57019;52.354;6.584;2022-12-17T07:46:44;102461.16;;;19.38;30.84
69749;BME280;57019;52.354;6.584;2022-12-17T07:49:28;102462.53;;;19.42;30.94
69749;BME280;57019;52.354;6.584;2022-12-17T07:52:12;102456.06;;;19.46;30.91
69749;BME280;57019;52.354;6.584;2022-12-17T07:54:56;102462.81;;;19.59;31.15
69749;BME280;57019;52.354;6.584;2022-12-17T07:57:40;102471.09;;;19.64;31.38
69749;BME280;57019;52.354;6.584;2022-12-17T08:00:24;102474.81;;;19.71;31.38
69749;BME280;57019;52.354;6.584;2022-12-17T08:03:08;102470.28;;;19.73;31.18
69749;BME280;57019;52.354;6.584;2022-12-17T08:05:56;102481.72;;;19.72;31.47
69749;BME280;57019;52.354;6.584;2022-12-17T08:08:41;102481.28;;;19.67;31.33
69749;BME280;57019;52.354;6.584;2022-12-17T08:11:24;102483.53;;;19.62;31.41
69749;BME280;57019;52.354;6.584;2022-12-17T08:14:08;102482.16;;;19.58;31.87
69749;BME280;57019;52.354;6.584;2022-12-17T08:16:52;102473.03;;;19.52;31.92
69749;BME280;57019;52.354;6.584;2022-12-17T08:19:36;102480.47;;;19.37;32.37
69749;BME280;57019;52.354;6.584;2022-12-17T08:22:20;102488.06;;;19.30;32.71
69749;BME280;57019;52.354;6.584;2022-12-17T08:25:05;102483.19;;;19.26;32.64
69749;BME280;57019;52.354;6.584;2022-12-17T08:27:54;102474.66;;;19.14;32.98
69749;BME280;57019;52.354;6.584;2022-12-17T08:30:38;102480.69;;;19.05;33.03
69749;BME280;57019;52.354;6.584;2022-12-17T08:33:22;102483.56;;;18.92;33.00
69749;BME280;57019;52.354;6.584;2022-12-17T08:36:07;102491.66;;;18.89;33.11
69749;BME280;57019;52.354;6.584;2022-12-17T08:38:51;102488.97;;;19.00;33.61
69749;BME280;57019;52.354;6.584;2022-12-17T08:41:35;102494.91;;;19.12;33.22
69749;BME280;57019;52.354;6.584;2022-12-17T08:44:19;102506.91;;;19.14;33.47
69749;BME280;57019;52.354;6.584;2022-12-17T08:47:03;102509.09;;;19.19;33.60
69749;BME280;57019;52.354;6.584;2022-12-17T08:49:47;102511.72;;;19.19;33.79
69749;BME280;57019;52.354;6.584;2022-12-17T08:52:31;102514.63;;;19.16;33.87
69749;BME280;57019;52.354;6.584;2022-12-17T08:55:15;102505.00;;;19.17;33.96
69749;BME280;57019;52.354;6.584;2022-12-17T08:57:59;102504.28;;;19.24;33.62
69749;BME280;57019;52.354;6.584;2022-12-17T09:00:43;102514.09;;;19.32;33.38
69749;BME280;57019;52.354;6.584;2022-12-17T09:03:27;102520.44;;;19.39;33.29
69749;BME280;57019;52.354;6.584;2022-12-17T09:06:11;102521.16;;;19.41;33.12
69749;BME280;57019;52.354;6.584;2022-12-17T09:08:55;102524.19;;;19.46;33.06
69749;BME280;57019;52.354;6.584;2022-12-17T09:11:40;102523.50;;;19.44;33.14
69749;BME280;57019;52.354;6.584;2022-12-17T09:14:24;102521.31;;;19.49;32.88
69749;BME280;57019;52.354;6.584;2022-12-17T09:17:08;102521.41;;;19.48;32.99
69749;BME280;57019;52.354;6.584;2022-12-17T09:19:52;102525.53;;;19.41;32.86
69749;BME280;57019;52.354;6.584;2022-12-17T09:22:36;102527.88;;;19.34;32.91
69749;BME280;57019;52.354;6.584;2022-12-17T09:25:20;102528.72;;;19.25;32.94
69749;BME280;57019;52.354;6.584;2022-12-17T09:28:04;102530.19;;;19.18;32.91
69749;BME280;57019;52.354;6.584;2022-12-17T09:30:48;102542.16;;;19.10;33.01
69749;BME280;57019;52.354;6.584;2022-12-17T09:33:33;102538.28;;;19.05;32.98
69749;BME280;57019;52.354;6.584;2022-12-17T09:36:16;102546.28;;;19.03;33.25
69749;BME280;57019;52.354;6.584;2022-12-17T09:39:01;102545.72;;;19.09;33.36
69749;BME280;57019;52.354;6.584;2022-12-17T09:42:13;102553.22;;;19.24;33.12
69749;BME280;57019;52.354;6.584;2022-12-17T09:45:07;102554.38;;;19.41;33.17
69749;BME280;57019;52.354;6.584;2022-12-17T09:48:17;102553.00;;;19.56;32.87
69749;BME280;57019;52.354;6.584;2022-12-17T09:51:04;102555.38;;;19.69;33.03
69749;BME280;57019;52.354;6.584;2022-12-17T09:53:51;102566.00;;;19.77;32.84
69749;BME280;57019;52.354;6.584;2022-12-17T09:56:37;102567.41;;;19.81;32.85
69749;BME280;57019;52.354;6.584;2022-12-17T09:59:33;102561.22;;;19.82;32.58
69749;BME280;57019;52.354;6.584;2022-12-17T10:02:21;102568.38;;;19.80;32.91
69749;BME280;57019;52.354;6.584;2022-12-17T10:05:13;102559.09;;;19.76;32.84
69749;BME280;57019;52.354;6.584;2022-12-17T10:07:58;102556.06;;;19.71;32.73
69749;BME280;57019;52.354;6.584;2022-12-17T10:10:44;102563.25;;;19.69;32.87
69749;BME280;57019;52.354;6.584;2022-12-17T10:13:29;102573.72;;;19.59;32.91
69749;BME280;57019;52.354;6.584;2022-12-17T10:16:29;102569.00;;;19.53;33.24
69749;BME280;57019;52.354;6.584;2022-12-17T10:22:09;102566.00;;;19.58;33.29
69749;BME280;57019;52.354;6.584;2022-12-17T10:24:54;102564.31;;;19.57;33.10
69749;BME280;57019;52.354;6.584;2022-12-17T10:27:37;102563.38;;;19.58;33.13
69749;BME280;57019;52.354;6.584;2022-12-17T10:30:22;102562.69;;;19.65;32.87
69749;BME280;57019;52.354;6.584;2022-12-17T10:33:06;102556.91;;;19.72;32.87
69749;BME280;57019;52.354;6.584;2022-12-17T10:35:50;102559.91;;;19.77;32.64
69749;BME280;57019;52.354;6.584;2022-12-17T10:38:35;102556.94;;;19.81;32.87
69749;BME280;57019;52.354;6.584;2022-12-17T10:41:24;102561.59;;;19.88;32.57
69749;BME280;57019;52.354;6.584;2022-12-17T10:44:33;102559.97;;;19.96;32.70
69749;BME280;57019;52.354;6.584;2022-12-17T10:47:26;102565.59;;;19.92;32.62
69749;BME280;57019;52.354;6.584;2022-12-17T10:50:29;102561.59;;;19.88;32.48
69749;BME280;57019;52.354;6.584;2022-12-17T10:53:22;102565.16;;;19.67;32.92
69749;BME280;57019;52.354;6.584;2022-12-17T10:56:18;102565.13;;;19.47;33.31
69749;BME280;57019;52.354;6.584;2022-12-17T10:59:13;102571.16;;;19.38;33.74
69749;BME280;57019;52.354;6.584;2022-12-17T11:02:16;102569.25;;;19.30;34.23
69749;BME280;57019;52.354;6.584;2022-12-17T11:05:02;102572.41;;;19.34;34.77
69749;BME280;57019;52.354;6.584;2022-12-17T11:07:47;102565.09;;;19.28;35.19
69749;BME280;57019;52.354;6.584;2022-12-17T11:10:35;102565.69;;;19.41;35.25
69749;BME280;57019;52.354;6.584;2022-12-17T11:13:29;102569.56;;;19.47;35.39
69749;BME280;57019;52.354;6.584;2022-12-17T11:16:36;102563.75;;;19.53;35.59
69749;BME280;57019;52.354;6.584;2022-12-17T11:22:35;102553.56;;;19.79;36.16
69749;BME280;57019;52.354;6.584;2022-12-17T11:25:41;102553.06;;;19.86;36.17
69749;BME280;57019;52.354;6.584;2022-12-17T11:28:28;102571.13;;;19.89;36.34
69749;BME280;57019;52.354;6.584;2022-12-17T11:34:24;102589.22;;;19.92;36.57
69749;BME280;57019;52.354;6.584;2022-12-17T11:37:37;102586.25;;;19.75;37.02
69749;BME280;57019;52.354;6.584;2022-12-17T11:40:30;102593.78;;;19.80;36.60
69749;BME280;57019;52.354;6.584;2022-12-17T11:43:32;102584.63;;;19.74;36.76
69749;BME280;57019;52.354;6.584;2022-12-17T11:55:05;102578.69;;;19.62;37.09
69749;BME280;57019;52.354;6.584;2022-12-17T11:58:21;102574.81;;;19.66;37.26
69749;BME280;57019;52.354;6.584;2022-12-17T12:01:46;102571.47;;;19.55;37.11
69749;BME280;57019;52.354;6.584;2022-12-17T12:10:25;102565.44;;;19.64;36.98
69749;BME280;57019;52.354;6.584;2022-12-17T12:13:28;102567.78;;;19.67;36.94
69749;BME280;57019;52.354;6.584;2022-12-17T12:16:22;102563.84;;;19.82;36.96
69749;BME280;57019;52.354;6.584;2022-12-17T12:22:42;102563.00;;;19.92;36.42
69749;BME280;57019;52.354;6.584;2022-12-17T12:25:39;102564.78;;;19.91;36.55
69749;BME280;57019;52.354;6.584;2022-12-17T12:28:58;102553.06;;;19.86;36.46
69749;BME280;57019;52.354;6.584;2022-12-17T12:34:30;102564.91;;;19.70;36.42
69749;BME280;57019;52.354;6.584;2022-12-17T12:37:18;102560.75;;;19.58;36.52
69749;BME280;57019;52.354;6.584;2022-12-17T12:40:19;102559.09;;;19.57;36.68
69749;BME280;57019;52.354;6.584;2022-12-17T12:43:28;102567.63;;;19.59;36.46
69749;BME280;57019;52.354;6.584;2022-12-17T12:46:23;102564.59;;;19.54;36.20
69749;BME280;57019;52.354;6.584;2022-12-17T12:49:52;102557.97;;;19.49;36.38
69749;BME280;57019;52.354;6.584;2022-12-17T12:52:37;102562.81;;;19.74;35.69
69749;BME280;57019;52.354;6.584;2022-12-17T12:55:21;102559.09;;;19.76;35.73
69749;BME280;57019;52.354;6.584;2022-12-17T12:58:24;102567.81;;;20.83;33.82
69749;BME280;57019;52.354;6.584;2022-12-17T13:01:09;102563.66;;;21.36;32.67
69749;BME280;57019;52.354;6.584;2022-12-17T13:03:55;102561.25;;;21.71;31.85
69749;BME280;57019;52.354;6.584;2022-12-17T13:06:53;102561.47;;;21.77;31.86
69749;BME280;57019;52.354;6.584;2022-12-17T13:11:54;102561.41;;;21.23;32.88
69749;BME280;57019;52.354;6.584;2022-12-17T13:14:30;102572.38;;;21.18;32.96
69749;BME280;57019;52.354;6.584;2022-12-17T13:17:05;102569.19;;;21.15;32.98
69749;BME280;57019;52.354;6.584;2022-12-17T13:24:48;102557.78;;;21.06;32.98
69749;BME280;57019;52.354;6.584;2022-12-17T13:33:04;102580.84;;;21.30;32.81
69749;BME280;57019;52.354;6.584;2022-12-17T13:41:17;102562.03;;;21.35;33.02
69749;BME280;57019;52.354;6.584;2022-12-17T13:44:11;102555.44;;;21.31;32.67
69749;BME280;57019;52.354;6.584;2022-12-17T13:46:43;102553.06;;;21.28;32.72
69749;BME280;57019;52.354;6.584;2022-12-17T13:49:17;102555.69;;;21.28;32.60
69749;BME280;57019;52.354;6.584;2022-12-17T13:51:43;102564.28;;;21.30;32.59
69749;BME280;57019;52.354;6.584;2022-12-17T13:54:18;102571.22;;;21.21;32.83
69749;BME280;57019;52.354;6.584;2022-12-17T13:56:44;102551.63;;;21.15;32.90
69749;BME280;57019;52.354;6.584;2022-12-17T13:59:17;102559.31;;;21.27;32.67
69749;BME280;57019;52.354;6.584;2022-12-17T14:02:01;102565.06;;;21.12;32.71
69749;BME280;57019;52.354;6.584;2022-12-17T14:04:30;102565.75;;;21.14;32.96
69749;BME280;57019;52.354;6.584;2022-12-17T14:07:02;102551.44;;;21.27;32.38
69749;BME280;57019;52.354;6.584;2022-12-17T14:09:36;102557.72;;;21.16;33.03
69749;BME280;57019;52.354;6.584;2022-12-17T14:12:10;102579.84;;;21.13;32.94
69749;BME280;57019;52.354;6.584;2022-12-17T14:14:55;102567.69;;;21.12;32.94
69749;BME280;57019;52.354;6.584;2022-12-17T14:20:03;102582.97;;;21.27;32.94
69749;BME280;57019;52.354;6.584;2022-12-17T14:22:34;102580.13;;;21.38;32.75
69749;BME280;57019;52.354;6.584;2022-12-17T14:25:01;102590.41;;;21.31;32.72
69749;BME280;57019;52.354;6.584;2022-12-17T14:27:32;102582.75;;;21.38;32.68
69749;BME280;57019;52.354;6.584;2022-12-17T14:29:58;102580.78;;;21.40;32.60
69749;BME280;57019;52.354;6.584;2022-12-17T14:32:31;102579.44;;;21.36;32.89
69749;BME280;57019;52.354;6.584;2022-12-17T14:34:57;102588.59;;;21.32;32.86
69749;BME280;57019;52.354;6.584;2022-12-17T14:37:23;102594.66;;;21.14;33.05
69749;BME280;57019;52.354;6.584;2022-12-17T14:39:52;102601.63;;;21.24;32.73
69749;BME280;57019;52.354;6.584;2022-12-17T14:42:20;102593.59;;;21.25;32.70
69749;BME280;57019;52.354;6.584;2022-12-17T14:52:38;102603.47;;;20.86;33.46
69749;BME280;57019;52.354;6.584;2022-12-17T15:01:05;102590.06;;;21.16;33.16
69749;BME280;57019;52.354;6.584;2022-12-17T15:03:33;102596.69;;;21.21;33.24
69749;BME280;57019;52.354;6.584;2022-12-17T15:06:02;102593.75;;;21.24;33.30
69749;BME280;57019;52.354;6.584;2022-12-17T15:08:32;102602.41;;;21.34;33.40
69749;BME280;57019;52.354;6.584;2022-12-17T15:11:01;102599.28;;;21.48;32.78
69749;BME280;57019;52.354;6.584;2022-12-17T15:13:26;102609.50;;;21.51;33.00
69749;BME280;57019;52.354;6.584;2022-12-17T15:15:52;102599.88;;;21.70;32.43
69749;BME280;57019;52.354;6.584;2022-12-17T15:18:17;102602.03;;;21.57;32.41
69749;BME280;57019;52.354;6.584;2022-12-17T15:20:43;102611.56;;;21.58;32.72
69749;BME280;57019;52.354;6.584;2022-12-17T15:23:14;102610.22;;;21.54;32.63
69749;BME280;57019;52.354;6.584;2022-12-17T15:25:39;102608.44;;;21.44;32.80
69749;BME280;57019;52.354;6.584;2022-12-17T15:28:04;102611.19;;;21.52;32.97
69749;BME280;57019;52.354;6.584;2022-12-17T15:30:30;102606.16;;;21.31;32.78
69749;BME280;57019;52.354;6.584;2022-12-17T15:32:55;102620.34;;;21.39;32.86
69749;BME280;57019;52.354;6.584;2022-12-17T15:35:21;102622.84;;;21.40;32.57
69749;BME280;57019;52.354;6.584;2022-12-17T15:37:46;102612.38;;;21.30;32.89